sensor_id;sensor_type;location;lat;lon;timestamp;temperature;humidity
39621;DHT22;25309;48.686;9.170;2023-05-10T00:02:10;13.70;99.90
39621;DHT22;25309;48.686;9.170;2023-05-10T00:04:37;13.70;99.90
39621;DHT22;25309;48.686;9.170;2023-05-10T00:07:04;13.80;99.90
39621;DHT22;25309;48.686;9.170;2023-05-10T00:09:31;13.80;99.90
39621;DHT22;25309;48.686;9.170;2023-05-10T00:11:59;13.70;99.90
39621;DHT22;25309;48.686;9.170;2023-05-10T00:14:26;13.80;99.90
39621;DHT22;25309;48.686;9.170;2023-05-10T00:16:53;13.80;99.90
39621;DHT22;25309;48.686;9.170;2023-05-10T00:19:20;13.80;99.90
39621;DHT22;25309;48.686;9.170;2023-05-10T00:21:47;13.80;99.90
39621;DHT22;25309;48.686;9.170;2023-05-10T00:24:14;13.80;99.90
39621;DHT22;25309;48.686;9.170;2023-05-10T00:26:41;13.80;99.90
39621;DHT22;25309;48.686;9.170;2023-05-10T00:29:10;13.80;99.90
39621;DHT22;25309;48.686;9.170;2023-05-10T00:31:37;13.70;99.90
39621;DHT22;25309;48.686;9.170;2023-05-10T00:34:04;13.70;99.90
39621;DHT22;25309;48.686;9.170;2023-05-10T00:36:31;13.70;99.90
39621;DHT22;25309;48.686;9.170;2023-05-10T00:38:58;13.60;99.90
39621;DHT22;25309;48.686;9.170;2023-05-10T00:41:25;13.60;99.90
39621;DHT22;25309;48.686;9.170;2023-05-10T00:43:52;13.50;99.90
39621;DHT22;25309;48.686;9.170;2023-05-10T00:46:20;13.50;99.90
39621;DHT22;25309;48.686;9.170;2023-05-10T00:48:48;13.50;99.90
39621;DHT22;25309;48.686;9.170;2023-05-10T00:51:15;13.50;99.90
39621;DHT22;25309;48.686;9.170;2023-05-10T00:53:44;13.50;99.90
39621;DHT22;25309;48.686;9.170;2023-05-10T00:56:12;13.50;99.90
39621;DHT22;25309;48.686;9.170;2023-05-10T00:58:39;13.50;99.90
39621;DHT22;25309;48.686;9.170;2023-05-10T01:01:06;13.40;99.90
39621;DHT22;25309;48.686;9.170;2023-05-10T01:03:36;13.40;99.90
39621;DHT22;25309;48.686;9.170;2023-05-10T01:06:03;13.40;99.90
39621;DHT22;25309;48.686;9.170;2023-05-10T01:08:31;13.40;99.90
39621;DHT22;25309;48.686;9.170;2023-05-10T01:10:58;13.40;99.90
39621;DHT22;25309;48.686;9.170;2023-05-10T01:13:31;13.30;99.90
39621;DHT22;25309;48.686;9.170;2023-05-10T01:15:59;13.30;99.90
39621;DHT22;25309;48.686;9.170;2023-05-10T01:18:30;13.30;99.90
39621;DHT22;25309;48.686;9.170;2023-05-10T01:21:07;13.20;99.90
39621;DHT22;25309;48.686;9.170;2023-05-10T01:23:53;13.30;99.90
39621;DHT22;25309;48.686;9.170;2023-05-10T01:26:47;13.20;99.90
39621;DHT22;25309;48.686;9.170;2023-05-10T01:29:46;13.20;99.90
39621;DHT22;25309;48.686;9.170;2023-05-10T01:32:26;13.20;99.90
39621;DHT22;25309;48.686;9.170;2023-05-10T01:34:58;13.20;99.90
39621;DHT22;25309;48.686;9.170;2023-05-10T01:37:36;13.20;99.90
39621;DHT22;25309;48.686;9.170;2023-05-10T01:40:11;13.20;99.90
39621;DHT22;25309;48.686;9.170;2023-05-10T01:42:45;13.20;99.90
39621;DHT22;25309;48.686;9.170;2023-05-10T01:45:20;13.20;99.90
39621;DHT22;25309;48.686;9.170;2023-05-10T01:47:53;13.10;99.90
39621;DHT22;25309;48.686;9.170;2023-05-10T01:50:29;13.10;99.90
39621;DHT22;25309;48.686;9.170;2023-05-10T01:52:58;13.10;99.90
39621;DHT22;25309;48.686;9.170;2023-05-10T01:55:29;13.10;99.90
39621;DHT22;25309;48.686;9.170;2023-05-10T01:58:02;13.00;99.90
39621;DHT22;25309;48.686;9.170;2023-05-10T02:00:30;13.00;99.90
39621;DHT22;25309;48.686;9.170;2023-05-10T02:03:00;13.10;99.90
39621;DHT22;25309;48.686;9.170;2023-05-10T02:05:29;13.10;99.90
39621;DHT22;25309;48.686;9.170;2023-05-10T02:07:58;13.10;99.90
39621;DHT22;25309;48.686;9.170;2023-05-10T02:10:25;13.00;99.90
39621;DHT22;25309;48.686;9.170;2023-05-10T02:12:53;13.00;99.90
39621;DHT22;25309;48.686;9.170;2023-05-10T02:15:23;13.00;99.90
39621;DHT22;25309;48.686;9.170;2023-05-10T02:17:52;13.00;99.90
39621;DHT22;25309;48.686;9.170;2023-05-10T02:20:23;13.00;99.90
39621;DHT22;25309;48.686;9.170;2023-05-10T02:22:52;13.00;99.90
39621;DHT22;25309;48.686;9.170;2023-05-10T02:25:21;13.00;99.90
39621;DHT22;25309;48.686;9.170;2023-05-10T02:27:51;13.00;99.90
39621;DHT22;25309;48.686;9.170;2023-05-10T02:30:19;13.00;99.90
39621;DHT22;25309;48.686;9.170;2023-05-10T02:32:49;13.00;99.90
39621;DHT22;25309;48.686;9.170;2023-05-10T02:35:16;13.00;99.90
39621;DHT22;25309;48.686;9.170;2023-05-10T02:37:45;13.00;99.90
39621;DHT22;25309;48.686;9.170;2023-05-10T02:40:14;13.00;99.90
39621;DHT22;25309;48.686;9.170;2023-05-10T02:42:43;13.10;99.90
39621;DHT22;25309;48.686;9.170;2023-05-10T02:45:13;13.00;99.90
39621;DHT22;25309;48.686;9.170;2023-05-10T02:47:41;13.00;99.90
39621;DHT22;25309;48.686;9.170;2023-05-10T02:50:09;13.00;99.90
39621;DHT22;25309;48.686;9.170;2023-05-10T02:52:40;13.00;99.90
39621;DHT22;25309;48.686;9.170;2023-05-10T02:55:14;12.90;99.90
39621;DHT22;25309;48.686;9.170;2023-05-10T02:57:46;12.90;99.90
39621;DHT22;25309;48.686;9.170;2023-05-10T03:00:15;12.90;99.90
39621;DHT22;25309;48.686;9.170;2023-05-10T03:02:42;12.90;99.90
39621;DHT22;25309;48.686;9.170;2023-05-10T03:05:10;12.90;99.90
39621;DHT22;25309;48.686;9.170;2023-05-10T03:07:37;12.90;99.90
39621;DHT22;25309;48.686;9.170;2023-05-10T03:10:05;12.90;99.90
39621;DHT22;25309;48.686;9.170;2023-05-10T03:12:50;12.90;99.90
39621;DHT22;25309;48.686;9.170;2023-05-10T03:15:25;12.90;99.90
39621;DHT22;25309;48.686;9.170;2023-05-10T03:17:57;12.90;99.90
39621;DHT22;25309;48.686;9.170;2023-05-10T03:20:33;12.90;99.90
39621;DHT22;25309;48.686;9.170;2023-05-10T03:23:07;12.80;99.90
39621;DHT22;25309;48.686;9.170;2023-05-10T03:25:35;12.80;99.90
39621;DHT22;25309;48.686;9.170;2023-05-10T03:28:06;12.70;99.90
39621;DHT22;25309;48.686;9.170;2023-05-10T03:30:34;12.70;99.90
39621;DHT22;25309;48.686;9.170;2023-05-10T03:33:05;12.70;99.90
39621;DHT22;25309;48.686;9.170;2023-05-10T03:35:35;12.70;99.90
39621;DHT22;25309;48.686;9.170;2023-05-10T03:38:03;12.70;99.90
39621;DHT22;25309;48.686;9.170;2023-05-10T03:40:30;12.60;99.90
39621;DHT22;25309;48.686;9.170;2023-05-10T03:42:58;12.50;99.90
39621;DHT22;25309;48.686;9.170;2023-05-10T03:45:27;12.50;99.90
39621;DHT22;25309;48.686;9.170;2023-05-10T03:47:54;12.50;99.90
39621;DHT22;25309;48.686;9.170;2023-05-10T03:50:22;12.50;99.90
39621;DHT22;25309;48.686;9.170;2023-05-10T03:52:49;12.50;99.90
39621;DHT22;25309;48.686;9.170;2023-05-10T03:55:17;12.50;99.90
39621;DHT22;25309;48.686;9.170;2023-05-10T03:57:44;12.50;99.90
39621;DHT22;25309;48.686;9.170;2023-05-10T04:00:12;12.50;99.90
39621;DHT22;25309;48.686;9.170;2023-05-10T04:02:43;12.50;99.90
39621;DHT22;25309;48.686;9.170;2023-05-10T04:05:17;12.40;99.90
39621;DHT22;25309;48.686;9.170;2023-05-10T04:07:44;12.30;99.90
39621;DHT22;25309;48.686;9.170;2023-05-10T04:10:11;12.30;99.90
39621;DHT22;25309;48.686;9.170;2023-05-10T04:12:38;12.40;99.90
39621;DHT22;25309;48.686;9.170;2023-05-10T04:15:06;12.30;99.90
39621;DHT22;25309;48.686;9.170;2023-05-10T04:17:33;12.40;99.90
39621;DHT22;25309;48.686;9.170;2023-05-10T04:20:01;12.40;99.90
39621;DHT22;25309;48.686;9.170;2023-05-10T04:22:28;12.30;99.90
39621;DHT22;25309;48.686;9.170;2023-05-10T04:24:55;12.30;99.90
39621;DHT22;25309;48.686;9.170;2023-05-10T04:27:22;12.30;99.90
39621;DHT22;25309;48.686;9.170;2023-05-10T04:29:49;12.40;99.90
39621;DHT22;25309;48.686;9.170;2023-05-10T04:32:16;12.40;99.90
39621;DHT22;25309;48.686;9.170;2023-05-10T04:34:43;12.40;99.90
39621;DHT22;25309;48.686;9.170;2023-05-10T04:37:12;12.40;99.90
39621;DHT22;25309;48.686;9.170;2023-05-10T04:39:39;12.40;99.90
39621;DHT22;25309;48.686;9.170;2023-05-10T04:42:08;12.50;99.90
39621;DHT22;25309;48.686;9.170;2023-05-10T04:44:35;12.50;99.90
39621;DHT22;25309;48.686;9.170;2023-05-10T04:47:02;12.50;99.90
39621;DHT22;25309;48.686;9.170;2023-05-10T04:49:30;12.40;99.90
39621;DHT22;25309;48.686;9.170;2023-05-10T04:51:56;12.50;99.90
39621;DHT22;25309;48.686;9.170;2023-05-10T04:54:25;12.50;99.90
39621;DHT22;25309;48.686;9.170;2023-05-10T04:56:52;12.50;99.90
39621;DHT22;25309;48.686;9.170;2023-05-10T04:59:19;12.50;99.90
39621;DHT22;25309;48.686;9.170;2023-05-10T05:01:46;12.60;99.90
39621;DHT22;25309;48.686;9.170;2023-05-10T05:04:12;12.60;99.90
39621;DHT22;25309;48.686;9.170;2023-05-10T05:06:41;12.60;99.90
39621;DHT22;25309;48.686;9.170;2023-05-10T05:09:07;12.60;99.90
39621;DHT22;25309;48.686;9.170;2023-05-10T05:11:38;12.70;99.90
39621;DHT22;25309;48.686;9.170;2023-05-10T05:14:05;12.70;99.90
39621;DHT22;25309;48.686;9.170;2023-05-10T05:16:31;12.70;99.90
39621;DHT22;25309;48.686;9.170;2023-05-10T05:18:59;12.70;99.90
39621;DHT22;25309;48.686;9.170;2023-05-10T05:21:27;12.80;99.90
39621;DHT22;25309;48.686;9.170;2023-05-10T05:23:55;12.80;99.90
39621;DHT22;25309;48.686;9.170;2023-05-10T05:26:22;12.80;99.90
39621;DHT22;25309;48.686;9.170;2023-05-10T05:28:50;12.80;99.90
39621;DHT22;25309;48.686;9.170;2023-05-10T05:31:21;12.80;99.90
39621;DHT22;25309;48.686;9.170;2023-05-10T05:33:48;12.80;99.90
39621;DHT22;25309;48.686;9.170;2023-05-10T05:36:15;12.80;99.90
39621;DHT22;25309;48.686;9.170;2023-05-10T05:38:42;12.80;99.90
39621;DHT22;25309;48.686;9.170;2023-05-10T05:41:09;12.80;99.90
39621;DHT22;25309;48.686;9.170;2023-05-10T05:43:36;12.80;99.90
39621;DHT22;25309;48.686;9.170;2023-05-10T05:46:05;12.80;99.90
39621;DHT22;25309;48.686;9.170;2023-05-10T05:48:32;12.80;99.90
39621;DHT22;25309;48.686;9.170;2023-05-10T05:50:59;12.80;99.90
39621;DHT22;25309;48.686;9.170;2023-05-10T05:53:26;12.90;99.90
39621;DHT22;25309;48.686;9.170;2023-05-10T05:55:53;12.90;99.90
39621;DHT22;25309;48.686;9.170;2023-05-10T05:58:21;13.00;99.90
39621;DHT22;25309;48.686;9.170;2023-05-10T06:00:48;13.00;99.90
39621;DHT22;25309;48.686;9.170;2023-05-10T06:03:16;13.10;99.90
39621;DHT22;25309;48.686;9.170;2023-05-10T06:05:43;13.20;99.90
39621;DHT22;25309;48.686;9.170;2023-05-10T06:08:10;13.20;99.90
39621;DHT22;25309;48.686;9.170;2023-05-10T06:10:37;13.20;99.90
39621;DHT22;25309;48.686;9.170;2023-05-10T06:13:04;13.20;99.90
39621;DHT22;25309;48.686;9.170;2023-05-10T06:15:31;13.20;99.90
39621;DHT22;25309;48.686;9.170;2023-05-10T06:17:59;13.30;99.90
39621;DHT22;25309;48.686;9.170;2023-05-10T06:20:27;13.20;99.90
39621;DHT22;25309;48.686;9.170;2023-05-10T06:22:54;13.30;99.90
39621;DHT22;25309;48.686;9.170;2023-05-10T06:25:21;13.30;99.90
39621;DHT22;25309;48.686;9.170;2023-05-10T06:27:48;13.30;99.90
39621;DHT22;25309;48.686;9.170;2023-05-10T06:30:19;13.30;99.90
39621;DHT22;25309;48.686;9.170;2023-05-10T06:32:47;13.40;99.90
39621;DHT22;25309;48.686;9.170;2023-05-10T06:35:14;13.40;99.90
39621;DHT22;25309;48.686;9.170;2023-05-10T06:37:42;13.30;99.90
39621;DHT22;25309;48.686;9.170;2023-05-10T06:40:10;13.40;99.90
39621;DHT22;25309;48.686;9.170;2023-05-10T06:42:37;13.40;99.90
39621;DHT22;25309;48.686;9.170;2023-05-10T06:45:05;13.40;99.90
39621;DHT22;25309;48.686;9.170;2023-05-10T06:47:32;13.30;99.90
39621;DHT22;25309;48.686;9.170;2023-05-10T06:50:01;13.30;99.90
39621;DHT22;25309;48.686;9.170;2023-05-10T06:52:28;13.30;99.90
39621;DHT22;25309;48.686;9.170;2023-05-10T06:54:56;13.30;99.90
39621;DHT22;25309;48.686;9.170;2023-05-10T06:57:24;13.30;99.90
39621;DHT22;25309;48.686;9.170;2023-05-10T06:59:56;13.30;99.90
39621;DHT22;25309;48.686;9.170;2023-05-10T07:02:23;13.30;99.90
39621;DHT22;25309;48.686;9.170;2023-05-10T07:04:50;13.30;99.90
39621;DHT22;25309;48.686;9.170;2023-05-10T07:07:18;13.30;99.90
39621;DHT22;25309;48.686;9.170;2023-05-10T07:09:46;13.40;99.90
39621;DHT22;25309;48.686;9.170;2023-05-10T07:12:14;13.40;99.90
39621;DHT22;25309;48.686;9.170;2023-05-10T07:14:42;13.50;99.90
39621;DHT22;25309;48.686;9.170;2023-05-10T07:17:09;13.50;99.90
39621;DHT22;25309;48.686;9.170;2023-05-10T07:19:36;13.60;99.90
39621;DHT22;25309;48.686;9.170;2023-05-10T07:22:02;13.60;99.90
39621;DHT22;25309;48.686;9.170;2023-05-10T07:24:29;13.70;99.90
39621;DHT22;25309;48.686;9.170;2023-05-10T07:26:58;13.80;99.90
39621;DHT22;25309;48.686;9.170;2023-05-10T07:29:26;13.80;99.90
39621;DHT22;25309;48.686;9.170;2023-05-10T07:31:53;13.90;99.90
39621;DHT22;25309;48.686;9.170;2023-05-10T07:34:22;13.90;99.90
39621;DHT22;25309;48.686;9.170;2023-05-10T07:36:49;13.90;99.90
39621;DHT22;25309;48.686;9.170;2023-05-10T07:39:16;13.90;99.90
39621;DHT22;25309;48.686;9.170;2023-05-10T07:41:53;14.00;99.90
39621;DHT22;25309;48.686;9.170;2023-05-10T07:44:20;14.00;99.90
39621;DHT22;25309;48.686;9.170;2023-05-10T07:46:48;14.00;99.90
39621;DHT22;25309;48.686;9.170;2023-05-10T07:49:15;14.00;99.90
39621;DHT22;25309;48.686;9.170;2023-05-10T07:51:42;14.00;99.90
39621;DHT22;25309;48.686;9.170;2023-05-10T07:54:09;14.00;99.90
39621;DHT22;25309;48.686;9.170;2023-05-10T07:56:36;13.90;99.90
39621;DHT22;25309;48.686;9.170;2023-05-10T07:59:04;14.00;99.90
39621;DHT22;25309;48.686;9.170;2023-05-10T08:01:34;14.00;99.90
39621;DHT22;25309;48.686;9.170;2023-05-10T08:04:02;14.00;99.90
39621;DHT22;25309;48.686;9.170;2023-05-10T08:06:29;14.10;99.90
39621;DHT22;25309;48.686;9.170;2023-05-10T08:08:57;14.10;99.90
39621;DHT22;25309;48.686;9.170;2023-05-10T08:11:24;14.10;99.90
39621;DHT22;25309;48.686;9.170;2023-05-10T08:13:52;14.20;99.90
39621;DHT22;25309;48.686;9.170;2023-05-10T08:16:19;14.20;99.90
39621;DHT22;25309;48.686;9.170;2023-05-10T08:18:47;14.20;99.90
39621;DHT22;25309;48.686;9.170;2023-05-10T08:21:15;14.20;99.90
39621;DHT22;25309;48.686;9.170;2023-05-10T08:23:42;14.10;99.90
39621;DHT22;25309;48.686;9.170;2023-05-10T08:26:11;14.20;99.90
39621;DHT22;25309;48.686;9.170;2023-05-10T08:28:38;14.30;99.90
39621;DHT22;25309;48.686;9.170;2023-05-10T08:31:05;14.30;99.90
39621;DHT22;25309;48.686;9.170;2023-05-10T08:33:32;14.40;99.90
39621;DHT22;25309;48.686;9.170;2023-05-10T08:35:59;14.40;99.90
39621;DHT22;25309;48.686;9.170;2023-05-10T08:38:27;14.30;99.90
39621;DHT22;25309;48.686;9.170;2023-05-10T08:40:55;14.40;99.90
39621;DHT22;25309;48.686;9.170;2023-05-10T08:43:27;14.40;99.90
39621;DHT22;25309;48.686;9.170;2023-05-10T08:46:00;14.40;99.90
39621;DHT22;25309;48.686;9.170;2023-05-10T08:48:29;14.40;99.90
39621;DHT22;25309;48.686;9.170;2023-05-10T08:50:58;14.50;99.90
39621;DHT22;25309;48.686;9.170;2023-05-10T08:53:29;14.60;99.90
39621;DHT22;25309;48.686;9.170;2023-05-10T08:55:57;14.70;99.90
39621;DHT22;25309;48.686;9.170;2023-05-10T08:58:25;14.70;99.90
39621;DHT22;25309;48.686;9.170;2023-05-10T09:00:52;14.70;99.90
39621;DHT22;25309;48.686;9.170;2023-05-10T09:03:20;14.70;99.90
39621;DHT22;25309;48.686;9.170;2023-05-10T09:05:47;14.80;99.90
39621;DHT22;25309;48.686;9.170;2023-05-10T09:08:15;14.80;99.90
39621;DHT22;25309;48.686;9.170;2023-05-10T09:10:44;14.80;99.90
39621;DHT22;25309;48.686;9.170;2023-05-10T09:13:14;14.90;99.90
39621;DHT22;25309;48.686;9.170;2023-05-10T09:15:44;14.90;99.90
39621;DHT22;25309;48.686;9.170;2023-05-10T09:18:12;15.00;99.90
39621;DHT22;25309;48.686;9.170;2023-05-10T09:20:39;15.10;99.90
39621;DHT22;25309;48.686;9.170;2023-05-10T09:23:06;15.10;99.90
39621;DHT22;25309;48.686;9.170;2023-05-10T09:25:33;15.10;99.90
39621;DHT22;25309;48.686;9.170;2023-05-10T09:28:06;15.20;99.90
39621;DHT22;25309;48.686;9.170;2023-05-10T09:30:33;15.20;99.90
39621;DHT22;25309;48.686;9.170;2023-05-10T09:33:00;15.10;99.90
39621;DHT22;25309;48.686;9.170;2023-05-10T09:35:28;15.20;99.90
39621;DHT22;25309;48.686;9.170;2023-05-10T09:37:57;15.30;99.90
39621;DHT22;25309;48.686;9.170;2023-05-10T09:40:25;15.30;99.90
39621;DHT22;25309;48.686;9.170;2023-05-10T09:42:55;15.30;99.90
39621;DHT22;25309;48.686;9.170;2023-05-10T09:45:24;15.40;99.90
39621;DHT22;25309;48.686;9.170;2023-05-10T09:47:53;15.40;99.90
39621;DHT22;25309;48.686;9.170;2023-05-10T09:50:20;15.40;99.90
39621;DHT22;25309;48.686;9.170;2023-05-10T09:52:49;15.40;99.90
39621;DHT22;25309;48.686;9.170;2023-05-10T09:55:18;15.30;99.90
39621;DHT22;25309;48.686;9.170;2023-05-10T09:57:46;15.30;99.90
39621;DHT22;25309;48.686;9.170;2023-05-10T10:00:18;15.30;99.90
39621;DHT22;25309;48.686;9.170;2023-05-10T10:02:53;15.30;99.90
39621;DHT22;25309;48.686;9.170;2023-05-10T10:05:20;15.40;99.90
39621;DHT22;25309;48.686;9.170;2023-05-10T10:07:47;15.50;99.90
39621;DHT22;25309;48.686;9.170;2023-05-10T10:10:17;15.60;99.90
39621;DHT22;25309;48.686;9.170;2023-05-10T10:12:43;15.70;99.90
39621;DHT22;25309;48.686;9.170;2023-05-10T10:15:11;15.80;99.90
39621;DHT22;25309;48.686;9.170;2023-05-10T10:17:43;16.00;99.90
39621;DHT22;25309;48.686;9.170;2023-05-10T10:20:12;16.20;99.90
39621;DHT22;25309;48.686;9.170;2023-05-10T10:22:40;16.30;99.90
39621;DHT22;25309;48.686;9.170;2023-05-10T10:25:08;16.40;99.90
39621;DHT22;25309;48.686;9.170;2023-05-10T10:27:43;16.40;99.90
39621;DHT22;25309;48.686;9.170;2023-05-10T10:30:22;16.50;99.90
39621;DHT22;25309;48.686;9.170;2023-05-10T10:33:06;16.60;99.90
39621;DHT22;25309;48.686;9.170;2023-05-10T10:35:47;16.70;99.90
39621;DHT22;25309;48.686;9.170;2023-05-10T10:38:14;16.70;99.90
39621;DHT22;25309;48.686;9.170;2023-05-10T10:40:41;16.70;99.90
39621;DHT22;25309;48.686;9.170;2023-05-10T10:43:22;16.70;99.90
39621;DHT22;25309;48.686;9.170;2023-05-10T10:46:11;16.60;99.90
39621;DHT22;25309;48.686;9.170;2023-05-10T10:48:39;16.60;99.90
39621;DHT22;25309;48.686;9.170;2023-05-10T10:51:08;16.60;99.90
39621;DHT22;25309;48.686;9.170;2023-05-10T10:53:40;16.60;99.90
39621;DHT22;25309;48.686;9.170;2023-05-10T10:56:08;16.70;99.90
39621;DHT22;25309;48.686;9.170;2023-05-10T10:58:37;16.70;99.90
39621;DHT22;25309;48.686;9.170;2023-05-10T11:01:12;16.70;99.90
39621;DHT22;25309;48.686;9.170;2023-05-10T11:03:39;16.70;99.90
39621;DHT22;25309;48.686;9.170;2023-05-10T11:06:07;16.70;99.90
39621;DHT22;25309;48.686;9.170;2023-05-10T11:08:41;16.60;99.90
39621;DHT22;25309;48.686;9.170;2023-05-10T11:11:14;16.10;99.90
39621;DHT22;25309;48.686;9.170;2023-05-10T11:13:42;15.80;99.90
39621;DHT22;25309;48.686;9.170;2023-05-10T11:16:11;15.50;99.90
39621;DHT22;25309;48.686;9.170;2023-05-10T11:18:39;15.20;99.90
39621;DHT22;25309;48.686;9.170;2023-05-10T11:21:09;15.00;99.90
39621;DHT22;25309;48.686;9.170;2023-05-10T11:23:51;14.80;99.90
39621;DHT22;25309;48.686;9.170;2023-05-10T11:26:18;14.60;99.90
39621;DHT22;25309;48.686;9.170;2023-05-10T11:28:47;14.50;99.90
39621;DHT22;25309;48.686;9.170;2023-05-10T11:31:14;14.30;99.90
39621;DHT22;25309;48.686;9.170;2023-05-10T11:33:45;14.20;99.90
39621;DHT22;25309;48.686;9.170;2023-05-10T11:36:14;14.10;99.90
39621;DHT22;25309;48.686;9.170;2023-05-10T11:38:42;14.10;99.90
39621;DHT22;25309;48.686;9.170;2023-05-10T11:41:09;14.10;99.90
39621;DHT22;25309;48.686;9.170;2023-05-10T11:43:36;14.10;99.90
39621;DHT22;25309;48.686;9.170;2023-05-10T11:46:05;14.10;99.90
39621;DHT22;25309;48.686;9.170;2023-05-10T11:48:33;14.10;99.90
39621;DHT22;25309;48.686;9.170;2023-05-10T11:51:00;14.10;99.90
39621;DHT22;25309;48.686;9.170;2023-05-10T11:53:31;14.20;99.90
39621;DHT22;25309;48.686;9.170;2023-05-10T11:56:03;14.20;99.90
39621;DHT22;25309;48.686;9.170;2023-05-10T11:58:30;14.30;99.90
39621;DHT22;25309;48.686;9.170;2023-05-10T12:00:57;14.30;99.90
39621;DHT22;25309;48.686;9.170;2023-05-10T12:03:25;14.50;99.90
39621;DHT22;25309;48.686;9.170;2023-05-10T12:05:52;14.50;99.90
39621;DHT22;25309;48.686;9.170;2023-05-10T12:08:21;14.60;99.90
39621;DHT22;25309;48.686;9.170;2023-05-10T12:10:50;14.70;99.90
39621;DHT22;25309;48.686;9.170;2023-05-10T12:13:19;15.00;99.90
39621;DHT22;25309;48.686;9.170;2023-05-10T12:15:47;15.20;99.90
39621;DHT22;25309;48.686;9.170;2023-05-10T12:18:14;15.40;99.90
39621;DHT22;25309;48.686;9.170;2023-05-10T12:20:42;15.50;99.90
39621;DHT22;25309;48.686;9.170;2023-05-10T12:23:09;15.60;99.90
39621;DHT22;25309;48.686;9.170;2023-05-10T12:25:37;15.60;99.90
39621;DHT22;25309;48.686;9.170;2023-05-10T12:28:08;15.60;99.90
39621;DHT22;25309;48.686;9.170;2023-05-10T12:30:37;15.60;99.90
39621;DHT22;25309;48.686;9.170;2023-05-10T12:33:08;15.60;99.90
39621;DHT22;25309;48.686;9.170;2023-05-10T12:35:44;15.50;99.90
39621;DHT22;25309;48.686;9.170;2023-05-10T12:38:28;15.50;99.90
39621;DHT22;25309;48.686;9.170;2023-05-10T12:41:00;15.40;99.90
39621;DHT22;25309;48.686;9.170;2023-05-10T12:43:28;15.50;99.90
39621;DHT22;25309;48.686;9.170;2023-05-10T12:45:56;15.50;99.90
39621;DHT22;25309;48.686;9.170;2023-05-10T12:48:23;15.40;99.90
39621;DHT22;25309;48.686;9.170;2023-05-10T12:50:50;15.40;99.90
39621;DHT22;25309;48.686;9.170;2023-05-10T12:53:17;15.30;99.90
39621;DHT22;25309;48.686;9.170;2023-05-10T12:55:44;15.30;99.90
39621;DHT22;25309;48.686;9.170;2023-05-10T12:58:11;15.30;99.90
39621;DHT22;25309;48.686;9.170;2023-05-10T13:00:48;15.40;99.90
39621;DHT22;25309;48.686;9.170;2023-05-10T13:03:14;15.50;99.90
39621;DHT22;25309;48.686;9.170;2023-05-10T13:05:42;15.50;99.90
39621;DHT22;25309;48.686;9.170;2023-05-10T13:08:09;15.60;99.90
39621;DHT22;25309;48.686;9.170;2023-05-10T13:10:36;15.50;99.90
39621;DHT22;25309;48.686;9.170;2023-05-10T13:13:03;15.50;99.90
39621;DHT22;25309;48.686;9.170;2023-05-10T13:15:29;15.60;99.90
39621;DHT22;25309;48.686;9.170;2023-05-10T13:17:58;15.70;99.90
39621;DHT22;25309;48.686;9.170;2023-05-10T13:20:25;15.80;99.90
39621;DHT22;25309;48.686;9.170;2023-05-10T13:22:52;15.80;99.90
39621;DHT22;25309;48.686;9.170;2023-05-10T13:25:19;15.90;99.90
39621;DHT22;25309;48.686;9.170;2023-05-10T13:27:46;16.00;99.90
39621;DHT22;25309;48.686;9.170;2023-05-10T13:30:13;16.00;99.90
39621;DHT22;25309;48.686;9.170;2023-05-10T13:32:40;16.10;99.90
39621;DHT22;25309;48.686;9.170;2023-05-10T13:35:09;16.10;99.90
39621;DHT22;25309;48.686;9.170;2023-05-10T13:37:36;16.20;99.90
39621;DHT22;25309;48.686;9.170;2023-05-10T13:40:05;16.30;99.90
39621;DHT22;25309;48.686;9.170;2023-05-10T13:42:32;16.30;99.90
39621;DHT22;25309;48.686;9.170;2023-05-10T13:45:00;16.30;99.90
39621;DHT22;25309;48.686;9.170;2023-05-10T13:47:28;16.30;99.90
39621;DHT22;25309;48.686;9.170;2023-05-10T13:49:55;16.30;99.90
39621;DHT22;25309;48.686;9.170;2023-05-10T13:52:24;16.30;99.90
39621;DHT22;25309;48.686;9.170;2023-05-10T13:54:51;16.30;99.90
39621;DHT22;25309;48.686;9.170;2023-05-10T13:57:21;16.20;99.90
39621;DHT22;25309;48.686;9.170;2023-05-10T13:59:48;16.30;99.90
39621;DHT22;25309;48.686;9.170;2023-05-10T14:02:15;16.30;99.90
39621;DHT22;25309;48.686;9.170;2023-05-10T14:04:42;16.40;99.90
39621;DHT22;25309;48.686;9.170;2023-05-10T14:07:09;16.40;99.90
39621;DHT22;25309;48.686;9.170;2023-05-10T14:09:38;16.40;99.90
39621;DHT22;25309;48.686;9.170;2023-05-10T14:12:05;16.50;99.90
39621;DHT22;25309;48.686;9.170;2023-05-10T14:14:32;16.50;99.90
39621;DHT22;25309;48.686;9.170;2023-05-10T14:16:58;16.50;99.90
39621;DHT22;25309;48.686;9.170;2023-05-10T14:19:26;16.50;99.90
39621;DHT22;25309;48.686;9.170;2023-05-10T14:21:53;16.50;99.90
39621;DHT22;25309;48.686;9.170;2023-05-10T14:24:20;16.50;99.90
39621;DHT22;25309;48.686;9.170;2023-05-10T14:26:48;16.40;99.90
39621;DHT22;25309;48.686;9.170;2023-05-10T14:29:15;16.50;99.90
39621;DHT22;25309;48.686;9.170;2023-05-10T14:31:42;16.70;99.90
39621;DHT22;25309;48.686;9.170;2023-05-10T14:34:09;16.80;99.90
39621;DHT22;25309;48.686;9.170;2023-05-10T14:36:36;16.90;99.90
39621;DHT22;25309;48.686;9.170;2023-05-10T14:39:03;17.10;99.90
39621;DHT22;25309;48.686;9.170;2023-05-10T14:41:30;17.00;99.90
39621;DHT22;25309;48.686;9.170;2023-05-10T14:43:58;17.00;99.90
39621;DHT22;25309;48.686;9.170;2023-05-10T14:46:25;16.90;99.90
39621;DHT22;25309;48.686;9.170;2023-05-10T14:48:53;16.90;99.90
39621;DHT22;25309;48.686;9.170;2023-05-10T14:51:20;16.90;99.90
39621;DHT22;25309;48.686;9.170;2023-05-10T14:53:48;17.00;99.90
39621;DHT22;25309;48.686;9.170;2023-05-10T14:56:16;17.00;99.90
39621;DHT22;25309;48.686;9.170;2023-05-10T14:58:42;17.00;99.90
39621;DHT22;25309;48.686;9.170;2023-05-10T15:01:11;17.10;99.90
39621;DHT22;25309;48.686;9.170;2023-05-10T15:03:38;17.20;99.90
39621;DHT22;25309;48.686;9.170;2023-05-10T15:06:07;17.20;99.90
39621;DHT22;25309;48.686;9.170;2023-05-10T15:08:34;17.20;99.90
39621;DHT22;25309;48.686;9.170;2023-05-10T15:11:01;17.10;99.90
39621;DHT22;25309;48.686;9.170;2023-05-10T15:13:29;17.00;99.90
39621;DHT22;25309;48.686;9.170;2023-05-10T15:15:56;17.00;99.90
39621;DHT22;25309;48.686;9.170;2023-05-10T15:18:24;16.80;99.90
39621;DHT22;25309;48.686;9.170;2023-05-10T15:20:51;16.90;99.90
39621;DHT22;25309;48.686;9.170;2023-05-10T15:23:18;16.90;99.90
39621;DHT22;25309;48.686;9.170;2023-05-10T15:25:45;17.00;99.90
39621;DHT22;25309;48.686;9.170;2023-05-10T15:28:12;17.10;99.90
39621;DHT22;25309;48.686;9.170;2023-05-10T15:30:39;17.00;99.90
39621;DHT22;25309;48.686;9.170;2023-05-10T15:33:05;17.00;99.90
39621;DHT22;25309;48.686;9.170;2023-05-10T15:35:35;17.00;99.90
39621;DHT22;25309;48.686;9.170;2023-05-10T15:38:04;17.10;99.90
39621;DHT22;25309;48.686;9.170;2023-05-10T15:40:32;17.20;99.90